createdAt,value
2022-09-07T00:00:55.809Z,9.278281
2022-09-07T00:01:55.787Z,9.278303
2022-09-07T00:02:55.843Z,9.278290
2022-09-07T00:03:55.883Z,9.278296
2022-09-07T00:04:55.769Z,9.278322
2022-09-07T00:05:55.721Z,9.278331
2022-09-07T00:06:55.749Z,9.278330
2022-09-07T00:07:55.684Z,9.278222
2022-09-07T00:08:55.716Z,9.278225
2022-09-07T00:09:55.686Z,9.278414
2022-09-07T00:10:55.634Z,9.278357
2022-09-07T00:11:55.609Z,9.278337
2022-09-07T00:12:55.589Z,9.278419
2022-09-07T00:13:55.584Z,9.278278
2022-09-07T00:14:55.598Z,9.278343
2022-09-07T00:15:55.600Z,9.278357
2022-09-07T00:16:55.587Z,9.278315
2022-09-07T00:17:55.517Z,9.278370
2022-09-07T00:18:55.480Z,9.278416
2022-09-07T00:19:56.561Z,9.278417
2022-09-07T00:20:55.554Z,9.278404
2022-09-07T00:21:55.473Z,9.278341
2022-09-07T00:22:56.430Z,9.278421
2022-09-07T00:23:55.415Z,9.278375
2022-09-07T00:24:55.419Z,9.278361
2022-09-07T00:25:55.390Z,9.278325
2022-09-07T00:26:55.366Z,9.278290
2022-09-07T00:27:55.341Z,9.278332
2022-09-07T00:28:55.337Z,9.278328
2022-09-07T00:29:55.346Z,9.278382
2022-09-07T00:30:55.332Z,9.278388
2022-09-07T00:31:55.316Z,9.278329
2022-09-07T00:32:55.262Z,9.278314
2022-09-07T00:33:55.236Z,9.278286
2022-09-07T00:34:55.257Z,9.278311
2022-09-07T00:35:55.203Z,9.278295
2022-09-07T00:36:55.243Z,9.278322
2022-09-07T00:37:55.222Z,9.278287
2022-09-07T00:38:55.169Z,9.278337
2022-09-07T00:39:55.213Z,9.278357
2022-09-07T00:40:55.181Z,9.278314
2022-09-07T00:41:55.172Z,9.278296
2022-09-07T00:42:55.087Z,9.278283
2022-09-07T00:43:55.079Z,9.278359
2022-09-07T00:44:55.106Z,9.278345
2022-09-07T00:45:55.048Z,9.278334
2022-09-07T00:46:55.102Z,9.278340
2022-09-07T00:47:55.020Z,9.278530
2022-09-07T00:48:54.980Z,9.278262
2022-09-07T00:49:54.996Z,9.278204
2022-09-07T00:50:54.942Z,9.278384
2022-09-07T00:51:55.927Z,9.278370
2022-09-07T00:52:54.946Z,9.278357
2022-09-07T00:53:54.899Z,9.278282
2022-09-07T00:54:54.919Z,9.278402
2022-09-07T00:55:54.860Z,9.278366
2022-09-07T00:56:54.865Z,9.278401
2022-09-07T00:57:54.825Z,9.278371
2022-09-07T00:58:54.800Z,9.278356
2022-09-07T00:59:54.836Z,9.278346
2022-09-07T01:00:54.774Z,9.278318
2022-09-07T01:01:54.814Z,9.278416
2022-09-07T01:02:54.856Z,9.278369
2022-09-07T01:03:54.759Z,9.278335
2022-09-07T01:04:54.729Z,9.278312
2022-09-07T01:05:54.678Z,9.278413
2022-09-07T01:06:54.666Z,9.278350
2022-09-07T01:07:54.649Z,9.278357
2022-09-07T01:08:54.644Z,9.278362
2022-09-07T01:09:54.608Z,9.278322
2022-09-07T01:10:54.629Z,9.278358
2022-09-07T01:11:54.608Z,9.278319
2022-09-07T01:12:54.572Z,9.278316
2022-09-07T01:13:54.565Z,9.278338
2022-09-07T01:14:54.555Z,9.278437
2022-09-07T01:15:54.608Z,9.278419
2022-09-07T01:16:54.537Z,9.278394
2022-09-07T01:17:54.481Z,9.278408
2022-09-07T01:18:54.470Z,9.278419
2022-09-07T01:19:54.448Z,9.278370
2022-09-07T01:20:54.497Z,9.278309
2022-09-07T01:21:54.434Z,9.278297
2022-09-07T01:22:54.396Z,9.278279
2022-09-07T01:23:54.387Z,9.278328
2022-09-07T01:24:54.377Z,9.278343
2022-09-07T01:25:54.411Z,9.278332
2022-09-07T01:26:54.383Z,9.278420
2022-09-07T01:27:54.346Z,9.278463
2022-09-07T01:28:54.302Z,9.278484
2022-09-07T01:29:54.304Z,9.278445
2022-09-07T01:30:54.313Z,9.278406
2022-09-07T01:31:54.257Z,9.278321
2022-09-07T01:32:54.253Z,9.278307
2022-09-07T01:33:54.218Z,9.278313
2022-09-07T01:34:54.222Z,9.278302
2022-09-07T01:35:54.182Z,9.278298
2022-09-07T01:36:55.058Z,9.278335
2022-09-07T01:37:57.046Z,9.278394
2022-09-07T01:38:55.138Z,9.278323
2022-09-07T01:39:54.249Z,9.278342
2022-09-07T01:40:54.109Z,9.278318
2022-09-07T01:41:54.070Z,9.278400
2022-09-07T01:42:54.070Z,9.278354
2022-09-07T01:43:54.044Z,9.278339
2022-09-07T01:44:54.058Z,9.278355
2022-09-07T01:45:54.022Z,9.278341
2022-09-07T01:46:54.016Z,9.278398
2022-09-07T01:47:54.047Z,9.278317
2022-09-07T01:48:53.948Z,9.278295
2022-09-07T01:49:53.963Z,9.278334
2022-09-07T01:50:53.916Z,9.278337
2022-09-07T01:51:54.900Z,9.278362
2022-09-07T01:52:53.880Z,9.278354
2022-09-07T01:53:53.889Z,9.278350
2022-09-07T01:54:53.889Z,9.278282
2022-09-07T01:55:53.841Z,9.278333
2022-09-07T01:56:53.899Z,9.278337
2022-09-07T01:57:53.800Z,9.278344
2022-09-07T01:58:53.865Z,9.278252
2022-09-07T01:59:53.769Z,9.278192
2022-09-07T02:00:53.787Z,9.278311
2022-09-07T02:01:53.878Z,9.278473
2022-09-07T02:02:53.813Z,9.278438
2022-09-07T02:03:53.700Z,9.278432
2022-09-07T02:04:53.716Z,9.278424
2022-09-07T02:05:53.659Z,9.278352
2022-09-07T02:06:53.700Z,9.278309
2022-09-07T02:07:53.648Z,9.278351
2022-09-07T02:08:53.642Z,9.278257
2022-09-07T02:09:53.585Z,9.278337
2022-09-07T02:10:53.607Z,9.278328
2022-09-07T02:11:53.552Z,9.278177
2022-09-07T02:12:53.540Z,9.278098
2022-09-07T02:13:53.519Z,9.278214
2022-09-07T02:14:53.515Z,9.278291
2022-09-07T02:15:53.567Z,9.278330
2022-09-07T02:16:53.525Z,9.278372
2022-09-07T02:17:53.453Z,9.278397
2022-09-07T02:18:53.442Z,9.278392
2022-09-07T02:19:53.410Z,9.278303
2022-09-07T02:20:53.515Z,9.278301
2022-09-07T02:21:53.378Z,9.278304
2022-09-07T02:22:53.375Z,9.278240
2022-09-07T02:23:53.399Z,9.278279
2022-09-07T02:24:53.403Z,9.278335
2022-09-07T02:25:53.350Z,9.278300
2022-09-07T02:26:53.388Z,9.278331
2022-09-07T02:27:53.287Z,9.278295
2022-09-07T02:28:53.257Z,9.278296
2022-09-07T02:29:53.232Z,9.278230
2022-09-07T02:30:53.324Z,9.278348
2022-09-07T02:31:53.287Z,9.278348
2022-09-07T02:32:53.184Z,9.278359
2022-09-07T02:33:53.167Z,9.278338
2022-09-07T02:34:53.151Z,9.278358
2022-09-07T02:35:53.167Z,9.278316
2022-09-07T02:36:53.155Z,9.278312
2022-09-07T02:37:53.107Z,9.278349
2022-09-07T02:38:53.079Z,9.278370
2022-09-07T02:39:53.123Z,9.278387
2022-09-07T02:40:53.088Z,9.278404
2022-09-07T02:41:53.042Z,9.278361
2022-09-07T02:42:53.057Z,9.278251
2022-09-07T02:43:53.000Z,9.278152
2022-09-07T02:44:52.978Z,9.278275
2022-09-07T02:45:53.050Z,9.278304
2022-09-07T02:46:53.021Z,9.278319
2022-09-07T02:47:52.929Z,9.278311
2022-09-07T02:48:52.894Z,9.278333
2022-09-07T02:49:52.891Z,9.278342
2022-09-07T02:50:52.896Z,9.278447
2022-09-07T02:51:52.861Z,9.278429
2022-09-07T02:52:52.834Z,9.278422
2022-09-07T02:53:52.862Z,9.278387
2022-09-07T02:54:52.796Z,9.278403
2022-09-07T02:55:52.830Z,9.278444
2022-09-07T02:56:52.793Z,9.278482
2022-09-07T02:57:52.738Z,9.278388
2022-09-07T02:58:52.757Z,9.278323
2022-09-07T02:59:52.752Z,9.278430
2022-09-07T03:00:52.712Z,9.278332
2022-09-07T03:01:52.721Z,9.278358
2022-09-07T03:02:52.716Z,9.278428
2022-09-07T03:03:52.657Z,9.278390
2022-09-07T03:04:52.738Z,9.278378
2022-09-07T03:05:52.666Z,9.278379
2022-09-07T03:06:52.722Z,9.278364
2022-09-07T03:07:52.575Z,9.278316
2022-09-07T03:08:52.560Z,9.278377
2022-09-07T03:09:52.580Z,9.278355
2022-09-07T03:10:52.532Z,9.278316
2022-09-07T03:11:52.506Z,9.278313
2022-09-07T03:12:52.515Z,9.278323
2022-09-07T03:13:52.539Z,9.278272
2022-09-07T03:14:52.500Z,9.278385
2022-09-07T03:15:55.952Z,9.278294
2022-09-07T03:16:53.492Z,9.278295
2022-09-07T03:17:52.421Z,9.278343
2022-09-07T03:18:52.412Z,9.278349
2022-09-07T03:19:52.426Z,9.278339
2022-09-07T03:20:52.351Z,9.278329
2022-09-07T03:21:52.360Z,9.278220
2022-09-07T03:22:52.321Z,9.278362
2022-09-07T03:23:52.309Z,9.278400
2022-09-07T03:24:52.314Z,9.278436
2022-09-07T03:25:52.274Z,9.278465
2022-09-07T03:26:52.316Z,9.278344
2022-09-07T03:27:52.232Z,9.278210
2022-09-07T03:28:52.214Z,9.278196
2022-09-07T03:29:52.243Z,9.278371
2022-09-07T03:30:52.218Z,9.278296
2022-09-07T03:31:52.160Z,9.278275
2022-09-07T03:32:52.142Z,9.278396
2022-09-07T03:33:52.140Z,9.278360
2022-09-07T03:34:52.127Z,9.278294
2022-09-07T03:35:52.125Z,9.278365
2022-09-07T03:36:52.078Z,9.278273
2022-09-07T03:37:52.060Z,9.278333
2022-09-07T03:38:52.049Z,9.278326
2022-09-07T03:39:52.116Z,9.278324
2022-09-07T03:40:52.043Z,9.278361
2022-09-07T03:41:51.982Z,9.278295
2022-09-07T03:42:51.976Z,9.278110
2022-09-07T03:43:51.950Z,9.278090
2022-09-07T03:44:51.949Z,9.278245
2022-09-07T03:45:52.024Z,9.278345
2022-09-07T03:46:51.915Z,9.278461
2022-09-07T03:47:51.876Z,9.278281
2022-09-07T03:48:51.889Z,9.278218
2022-09-07T03:49:51.871Z,9.278393
2022-09-07T03:50:51.838Z,9.278320
2022-09-07T03:51:51.806Z,9.278350
2022-09-07T03:52:51.788Z,9.278296
2022-09-07T03:53:51.772Z,9.278325
2022-09-07T03:54:51.803Z,9.278316
2022-09-07T03:55:51.743Z,9.278416
2022-09-07T03:56:51.776Z,9.278356
2022-09-07T03:57:51.713Z,9.278376
2022-09-07T03:58:51.712Z,9.278359
2022-09-07T03:59:51.780Z,9.278233
2022-09-07T04:00:51.649Z,9.278292
2022-09-07T04:01:51.683Z,9.278274
2022-09-07T04:02:51.659Z,9.278270
2022-09-07T04:03:51.626Z,9.278332
2022-09-07T04:04:51.625Z,9.278239
2022-09-07T04:05:51.576Z,9.278257
2022-09-07T04:06:51.643Z,9.278347
2022-09-07T04:07:51.541Z,9.278367
2022-09-07T04:08:51.547Z,9.278385
2022-09-07T04:09:51.551Z,9.278402
2022-09-07T04:10:51.546Z,9.278348
2022-09-07T04:11:51.474Z,9.278338
2022-09-07T04:12:51.466Z,9.278395
2022-09-07T04:13:51.443Z,9.278338
2022-09-07T04:14:51.446Z,9.278358
2022-09-07T04:15:53.879Z,9.278339
2022-09-07T04:16:52.524Z,9.278350
2022-09-07T04:17:51.366Z,9.278353
2022-09-07T04:18:51.360Z,9.278352
2022-09-07T04:19:51.365Z,9.278377
2022-09-07T04:20:51.324Z,9.278363
2022-09-07T04:21:51.409Z,9.278360
2022-09-07T04:22:54.179Z,9.278398
2022-09-07T04:23:52.264Z,9.278400
2022-09-07T04:24:51.297Z,9.278397
2022-09-07T04:25:51.232Z,9.278412
2022-09-07T04:26:51.272Z,9.278459
2022-09-07T04:27:51.204Z,9.278383
2022-09-07T04:28:51.182Z,9.278364
2022-09-07T04:29:51.222Z,9.278364
2022-09-07T04:30:51.185Z,9.278428
2022-09-07T04:31:51.141Z,9.278447
2022-09-07T04:32:51.170Z,9.278314
2022-09-07T04:33:51.102Z,9.278275
2022-09-07T04:34:51.118Z,9.278338
2022-09-07T04:35:51.068Z,9.278383
2022-09-07T04:36:51.061Z,9.278367
2022-09-07T04:37:51.043Z,9.278352
2022-09-07T04:38:51.044Z,9.278333
2022-09-07T04:39:51.120Z,9.278374
2022-09-07T04:40:50.992Z,9.278358
2022-09-07T04:41:50.974Z,9.278326
2022-09-07T04:42:50.962Z,9.278318
2022-09-07T04:43:50.935Z,9.278358
2022-09-07T04:44:50.948Z,9.278324
2022-09-07T04:45:50.950Z,9.278287
2022-09-07T04:46:50.899Z,9.278297
2022-09-07T04:47:50.865Z,9.278294
2022-09-07T04:48:50.850Z,9.278320
2022-09-07T04:49:50.866Z,9.278306
2022-09-07T04:50:50.826Z,9.278358
2022-09-07T04:51:50.825Z,9.278316
2022-09-07T04:52:50.793Z,9.278362
2022-09-07T04:53:50.791Z,9.278292
2022-09-07T04:54:50.841Z,9.278363
2022-09-07T04:55:50.765Z,9.278325
2022-09-07T04:56:50.758Z,9.278318
2022-09-07T04:57:50.708Z,9.278390
2022-09-07T04:58:50.708Z,9.278419
2022-09-07T04:59:50.721Z,9.278320
2022-09-07T05:00:50.691Z,9.278334
2022-09-07T05:01:50.633Z,9.278345
2022-09-07T05:02:50.674Z,9.278426
2022-09-07T05:03:50.610Z,9.278366
2022-09-07T05:04:50.616Z,9.278317
2022-09-07T05:05:50.650Z,9.278275
2022-09-07T05:06:50.663Z,9.278412
2022-09-07T05:07:50.537Z,9.278373
2022-09-07T05:08:50.529Z,9.278383
2022-09-07T05:09:50.562Z,9.278404
2022-09-07T05:10:50.490Z,9.278410
2022-09-07T05:11:50.540Z,9.278437
2022-09-07T05:12:50.469Z,9.278443
2022-09-07T05:13:50.436Z,9.278393
2022-09-07T05:14:50.460Z,9.278361
2022-09-07T05:15:50.400Z,9.278341
2022-09-07T05:16:50.433Z,9.278302
2022-09-07T05:17:50.385Z,9.278363
2022-09-07T05:18:50.354Z,9.278349
2022-09-07T05:19:50.365Z,9.278260
2022-09-07T05:20:50.317Z,9.278223
2022-09-07T05:21:50.309Z,9.278334
2022-09-07T05:22:50.288Z,9.278358
2022-09-07T05:23:50.317Z,9.278290
2022-09-07T05:24:50.249Z,9.278403
2022-09-07T05:25:50.233Z,9.278357
2022-09-07T05:26:50.265Z,9.278434
2022-09-07T05:27:50.221Z,9.278368
2022-09-07T05:28:50.474Z,9.278322
2022-09-07T05:30:06.247Z,9.278316
2022-09-07T05:31:52.144Z,9.278312
2022-09-07T05:32:50.139Z,9.278370
2022-09-07T05:34:53.026Z,9.278141
2022-09-07T05:35:51.073Z,9.278192
2022-09-07T05:36:50.107Z,9.278153
2022-09-07T05:37:50.035Z,9.278126
2022-09-07T05:38:50.151Z,9.278374
2022-09-07T05:39:50.078Z,9.278270
2022-09-07T05:40:49.980Z,9.278304
2022-09-07T05:41:49.984Z,9.278207
2022-09-07T05:42:49.962Z,9.278179
2022-09-07T05:44:51.928Z,9.278234
2022-09-07T05:45:49.938Z,9.278112
2022-09-07T05:46:49.944Z,9.278106
2022-09-07T05:47:49.885Z,9.278179
2022-09-07T05:48:49.845Z,9.278148
2022-09-07T05:49:51.957Z,9.278312
2022-09-07T05:50:50.816Z,9.278313
2022-09-07T05:51:49.838Z,9.278311
2022-09-07T05:52:49.787Z,9.278294
2022-09-07T05:53:49.769Z,9.278267
2022-09-07T05:54:49.789Z,9.278281
2022-09-07T05:55:49.739Z,9.278308
2022-09-07T05:56:49.812Z,9.278230
2022-09-07T05:57:49.706Z,9.278251
2022-09-07T05:58:49.697Z,9.278347
2022-09-07T05:59:49.735Z,9.278299
2022-09-07T06:00:49.788Z,9.278294
2022-09-07T06:01:49.718Z,9.278370
2022-09-07T06:02:49.722Z,9.278379
2022-09-07T06:03:49.592Z,9.278344
2022-09-07T06:04:49.676Z,9.278264
2022-09-07T06:05:49.564Z,9.278263
2022-09-07T06:07:17.592Z,9.278302
2022-09-07T06:07:51.529Z,9.278282
2022-09-07T06:08:49.513Z,9.278296
2022-09-07T06:10:51.467Z,9.278279
2022-09-07T06:11:49.498Z,9.278300
2022-09-07T06:12:49.593Z,9.278268
2022-09-07T06:13:49.433Z,9.278308
2022-09-07T06:14:49.443Z,9.278319
2022-09-07T06:15:49.414Z,9.278287
2022-09-07T06:16:49.498Z,9.278335
2022-09-07T06:17:49.370Z,9.278343
2022-09-07T06:18:49.334Z,9.278324
2022-09-07T06:19:49.354Z,9.278318
2022-09-07T06:20:49.316Z,9.278358
2022-09-07T06:21:49.293Z,9.278310
2022-09-07T06:22:49.300Z,9.278240
2022-09-07T06:23:49.259Z,9.278181
2022-09-07T06:24:49.277Z,9.278228
2022-09-07T06:25:49.221Z,9.278114
2022-09-07T06:26:49.267Z,9.278182
2022-09-07T06:27:49.189Z,9.278194
2022-09-07T06:28:50.902Z,9.278241
2022-09-07T06:29:50.175Z,9.278227
2022-09-07T06:30:49.149Z,9.278253
2022-09-07T06:32:51.108Z,9.278250
2022-09-07T06:33:49.131Z,9.278231
2022-09-07T06:34:49.103Z,9.278400
2022-09-07T06:35:49.085Z,9.278357
2022-09-07T06:36:49.046Z,9.278310
2022-09-07T06:37:49.020Z,9.278296
2022-09-07T06:38:49.055Z,9.278323
2022-09-07T06:39:49.078Z,9.278284
2022-09-07T06:40:49.041Z,9.278362
2022-09-07T06:42:04.383Z,9.278333
2022-09-07T06:42:50.991Z,9.278419
2022-09-07T06:43:48.948Z,9.278225
2022-09-07T06:44:48.910Z,9.278355
2022-09-07T06:45:48.974Z,9.278390
2022-09-07T06:47:05.259Z,9.278139
2022-09-07T06:47:50.862Z,9.278170
2022-09-07T06:48:48.916Z,9.278213
2022-09-07T06:49:48.828Z,9.278256
2022-09-07T06:50:49.133Z,9.278348
2022-09-07T06:51:48.812Z,9.278189
2022-09-07T06:53:51.296Z,9.278192
2022-09-07T06:55:50.790Z,9.278188
2022-09-07T06:56:48.720Z,9.278173
2022-09-07T06:57:48.696Z,9.278234
2022-09-07T06:58:48.718Z,9.278219
2022-09-07T06:59:48.667Z,9.278225
2022-09-07T07:00:48.678Z,9.278157
2022-09-07T07:01:48.649Z,9.278030
2022-09-07T07:02:48.712Z,9.278119
2022-09-07T07:03:48.609Z,9.278148
2022-09-07T07:04:48.617Z,9.278090
2022-09-07T07:05:48.576Z,9.278135
2022-09-07T07:06:48.597Z,9.278144
2022-09-07T07:07:48.554Z,9.278179
2022-09-07T07:08:48.537Z,9.278174
2022-09-07T07:09:48.553Z,9.278201
2022-09-07T07:10:48.496Z,9.278153
2022-09-07T07:11:48.467Z,9.278302
2022-09-07T07:12:49.470Z,9.278202
2022-09-07T07:13:48.460Z,9.278159
2022-09-07T07:14:48.478Z,9.278308
2022-09-07T07:15:48.407Z,9.278303
2022-09-07T07:16:48.466Z,9.278264
2022-09-07T07:17:56.066Z,9.278268
2022-09-07T07:18:50.372Z,9.278248
2022-09-07T07:19:48.374Z,9.278234
2022-09-07T07:20:48.332Z,9.278189
2022-09-07T07:22:10.796Z,9.278228
2022-09-07T07:22:50.392Z,9.278115
2022-09-07T07:23:48.317Z,9.278248
2022-09-07T07:24:48.277Z,9.278234
2022-09-07T07:25:48.247Z,9.278265
2022-09-07T07:26:48.243Z,9.278430
2022-09-07T07:27:48.216Z,9.278208
2022-09-07T07:29:04.163Z,9.278270
2022-09-07T07:29:50.226Z,9.278336
2022-09-07T07:30:49.186Z,9.278324
2022-09-07T07:31:48.214Z,9.278317
2022-09-07T07:32:48.142Z,9.278236
2022-09-07T07:33:48.219Z,9.278229
2022-09-07T07:34:48.142Z,9.278348
2022-09-07T07:35:48.115Z,9.278371
2022-09-07T07:36:48.094Z,9.278279
2022-09-07T07:37:48.096Z,9.278303
2022-09-07T07:39:03.570Z,9.278294
2022-09-07T07:42:49.006Z,9.278365
2022-09-07T07:43:48.010Z,9.278316
2022-09-07T07:44:48.026Z,9.278327
2022-09-07T07:45:55.213Z,9.278372
2022-09-07T07:46:50.315Z,9.278363
2022-09-07T07:47:47.934Z,9.278505
2022-09-07T07:48:47.943Z,9.278530
2022-09-07T07:49:48.032Z,9.278514
2022-09-07T07:50:47.863Z,9.278496
2022-09-07T07:52:50.476Z,9.278458
2022-09-07T07:53:48.859Z,9.278375
2022-09-07T07:54:47.831Z,9.278380
2022-09-07T07:55:47.842Z,9.278524
2022-09-07T07:56:47.770Z,9.278566
2022-09-07T07:57:48.771Z,9.278395
2022-09-07T07:58:47.777Z,9.278380
2022-09-07T07:59:47.738Z,9.278306
2022-09-07T08:00:56.131Z,9.278280
2022-09-07T08:01:49.912Z,9.278376
2022-09-07T08:02:47.761Z,9.278435
2022-09-07T08:03:47.691Z,9.278419
2022-09-07T08:04:47.705Z,9.278448
2022-09-07T08:05:47.661Z,9.278468
2022-09-07T08:06:47.639Z,9.278528
2022-09-07T08:07:47.622Z,9.278419
2022-09-07T08:08:47.675Z,9.278442
2022-09-07T08:09:47.638Z,9.278425
2022-09-07T08:10:47.599Z,9.278434
2022-09-07T08:11:47.593Z,9.278370
2022-09-07T08:12:47.574Z,9.278392
2022-09-07T08:13:47.554Z,9.278408
2022-09-07T08:14:47.569Z,9.278401
2022-09-07T08:15:47.524Z,9.278411
2022-09-07T08:16:47.513Z,9.278488
2022-09-07T08:17:47.506Z,9.278517
2022-09-07T08:18:47.494Z,9.278453
2022-09-07T08:19:47.500Z,9.278354
2022-09-07T08:20:47.465Z,9.278357
2022-09-07T08:21:47.501Z,9.278355
2022-09-07T08:22:47.445Z,9.278357
2022-09-07T08:23:47.434Z,9.278397
2022-09-07T08:24:47.439Z,9.278433
2022-09-07T08:25:47.387Z,9.278426
2022-09-07T08:26:47.377Z,9.278458
2022-09-07T08:27:47.360Z,9.278444
2022-09-07T08:28:47.390Z,9.278424
2022-09-07T08:29:47.337Z,9.278448
2022-09-07T08:30:47.323Z,9.278457
2022-09-07T08:31:47.378Z,9.278522
2022-09-07T08:32:47.294Z,9.278502
2022-09-07T08:33:47.313Z,9.278448
2022-09-07T08:34:47.253Z,9.278393
2022-09-07T08:35:47.254Z,9.278511
2022-09-07T08:36:47.231Z,9.278463
2022-09-07T08:37:47.382Z,9.278461
2022-09-07T08:38:47.242Z,9.278404
2022-09-07T08:39:47.237Z,9.278419
2022-09-07T08:40:47.251Z,9.278438
2022-09-07T08:41:47.184Z,9.278433
2022-09-07T08:42:47.163Z,9.278379
2022-09-07T08:43:49.216Z,9.278358
2022-09-07T08:44:48.137Z,9.278345
2022-09-07T08:45:47.116Z,9.278316
2022-09-07T08:46:47.222Z,9.278331
2022-09-07T08:47:47.091Z,9.278374
2022-09-07T08:48:47.140Z,9.278385
2022-09-07T08:49:47.055Z,9.278390
2022-09-07T08:50:47.046Z,9.278388
2022-09-07T08:51:47.042Z,9.278365
2022-09-07T08:52:47.013Z,9.278410
2022-09-07T08:53:47.043Z,9.278358
2022-09-07T08:54:46.989Z,9.278337
2022-09-07T08:55:46.980Z,9.278365
2022-09-07T08:57:48.952Z,9.278374
2022-09-07T08:58:49.554Z,9.278390
2022-09-07T08:59:47.933Z,9.278381
2022-09-07T09:00:46.915Z,9.278391
2022-09-07T09:02:26.975Z,9.278331
2022-09-07T09:03:28.612Z,9.278332
2022-09-07T09:05:19.008Z,9.278415
2022-09-07T09:05:48.911Z,9.278322
2022-09-07T09:06:46.978Z,9.278560
2022-09-07T09:07:46.837Z,9.278315
2022-09-07T09:08:46.862Z,9.278289
2022-09-07T09:09:46.802Z,9.278270
2022-09-07T09:10:46.779Z,9.278226
2022-09-07T09:11:46.792Z,9.278254
2022-09-07T09:12:46.749Z,9.278234
2022-09-07T09:13:46.743Z,9.278299
2022-09-07T09:14:46.755Z,9.278263
2022-09-07T09:15:46.773Z,9.278287
2022-09-07T09:16:46.711Z,9.278340
2022-09-07T09:17:46.684Z,9.278379
2022-09-07T09:18:46.725Z,9.278388
2022-09-07T09:19:46.659Z,9.278393
2022-09-07T09:20:46.644Z,9.278370
2022-09-07T09:21:46.640Z,9.278383
2022-09-07T09:22:46.614Z,9.278377
2022-09-07T09:23:46.606Z,9.278373
2022-09-07T09:24:46.649Z,9.278380
2022-09-07T09:25:46.581Z,9.278434
2022-09-07T09:26:46.616Z,9.278434
2022-09-07T09:27:46.544Z,9.278499
2022-09-07T09:28:46.578Z,9.278468
2022-09-07T09:29:46.510Z,9.278445
2022-09-07T09:30:46.509Z,9.278379
2022-09-07T09:31:46.550Z,9.278412
2022-09-07T09:32:46.475Z,9.278277
2022-09-07T09:33:46.453Z,9.278332
2022-09-07T09:34:46.479Z,9.278190
2022-09-07T09:35:46.424Z,9.278208
2022-09-07T09:36:46.457Z,9.278344
2022-09-07T09:37:46.409Z,9.278408
2022-09-07T09:38:46.428Z,9.278336
2022-09-07T09:39:49.028Z,9.278440
2022-09-07T09:40:46.367Z,9.278393
2022-09-07T09:41:46.341Z,9.278321
2022-09-07T09:42:46.335Z,9.278425
2022-09-07T09:43:46.313Z,9.278401
2022-09-07T09:44:46.329Z,9.278421
2022-09-07T09:47:29.184Z,9.278380
2022-09-07T09:47:47.316Z,9.278370
2022-09-07T09:48:46.277Z,9.278402
2022-09-07T09:49:46.234Z,9.278424
2022-09-07T09:52:51.843Z,9.278235
2022-09-07T09:53:47.229Z,9.278325
2022-09-07T09:54:46.166Z,9.278308
2022-09-07T09:55:46.151Z,9.278285
2022-09-07T09:56:46.145Z,9.278281
2022-09-07T09:59:04.878Z,9.278335
2022-09-07T09:59:57.397Z,9.278300
2022-09-07T10:03:55.916Z,9.278331
2022-09-07T10:04:48.084Z,9.278319
2022-09-07T10:05:46.020Z,9.278326
2022-09-07T10:06:46.028Z,9.278348
2022-09-07T10:07:45.996Z,9.278352
2022-09-07T10:08:45.976Z,9.278343
2022-09-07T10:09:46.011Z,9.278377
2022-09-07T10:10:45.963Z,9.278412
2022-09-07T10:12:47.938Z,9.278346
2022-09-07T10:13:46.867Z,9.278349
2022-09-07T10:14:45.939Z,9.278322
2022-09-07T10:15:45.941Z,9.278230
2022-09-07T10:16:45.872Z,9.278307
2022-09-07T10:17:45.862Z,9.278296
2022-09-07T10:18:45.851Z,9.278339
2022-09-07T10:19:45.858Z,9.278328
2022-09-07T10:20:45.813Z,9.278304
2022-09-07T10:21:45.800Z,9.278268
2022-09-07T10:22:49.602Z,9.278249
2022-09-07T10:23:47.780Z,9.278245
2022-09-07T10:24:45.788Z,9.278304
2022-09-07T10:25:45.743Z,9.278275
2022-09-07T10:26:45.734Z,9.278301
2022-09-07T10:27:45.728Z,9.278322
2022-09-07T10:29:47.760Z,9.278300
2022-09-07T10:30:45.727Z,9.278298
2022-09-07T10:31:45.717Z,9.278363
2022-09-07T10:32:45.653Z,9.278345
2022-09-07T10:34:25.687Z,9.278340
2022-09-07T10:34:46.653Z,9.278346
2022-09-07T10:35:45.618Z,9.278316
2022-09-07T10:36:45.585Z,9.278321
2022-09-07T10:37:45.588Z,9.278340
2022-09-07T10:38:45.591Z,9.278333
2022-09-07T10:39:45.636Z,9.278288
2022-09-07T10:40:45.612Z,9.278347
2022-09-07T10:41:45.599Z,9.278319
2022-09-07T10:43:20.652Z,9.278309
2022-09-07T10:43:47.512Z,9.278321
2022-09-07T10:44:45.513Z,9.278370
2022-09-07T10:45:45.464Z,9.278332
2022-09-07T10:47:00.901Z,9.278350
2022-09-07T10:47:47.508Z,9.278316
2022-09-07T10:48:45.455Z,9.278356
2022-09-07T10:50:47.426Z,9.278350
2022-09-07T10:51:45.378Z,9.278351
2022-09-07T10:52:45.382Z,9.278291
2022-09-07T10:53:45.492Z,9.278269
2022-09-07T10:54:45.383Z,9.278376
2022-09-07T10:55:45.339Z,9.278362
2022-09-07T10:56:45.315Z,9.278255
2022-09-07T10:57:48.906Z,9.278296
2022-09-07T10:59:02.833Z,9.278316
2022-09-07T11:00:47.279Z,9.278258
2022-09-07T11:01:45.272Z,9.278296
2022-09-07T11:03:24.860Z,9.278196
2022-09-07T11:03:47.264Z,9.278219
2022-09-07T11:04:45.241Z,9.278216
2022-09-07T11:05:45.196Z,9.278199
2022-09-07T11:06:45.233Z,9.278194
2022-09-07T11:07:45.158Z,9.278173
2022-09-07T11:09:47.181Z,9.278254
2022-09-07T11:10:45.121Z,9.278303
2022-09-07T11:12:01.118Z,9.278337
2022-09-07T11:12:47.096Z,9.278387
2022-09-07T11:14:09.365Z,9.278304
2022-09-07T11:14:47.087Z,9.278319
2022-09-07T11:15:45.081Z,9.278290
2022-09-07T11:16:52.291Z,9.278217
2022-09-07T11:17:52.005Z,9.278238
2022-09-07T11:18:47.026Z,9.278202
2022-09-07T11:19:45.024Z,9.278199
2022-09-07T11:20:44.990Z,9.278176
2022-09-07T11:22:00.273Z,9.278227
2022-09-07T11:22:46.928Z,9.278195
2022-09-07T11:23:44.941Z,9.278201
2022-09-07T11:24:45.265Z,9.278199
2022-09-07T11:25:46.721Z,9.278196
2022-09-07T11:26:44.865Z,9.278194
2022-09-07T11:27:44.867Z,9.278235
2022-09-07T11:28:45.341Z,9.278285
2022-09-07T11:29:44.882Z,9.277974
2022-09-07T11:30:44.892Z,9.278212
2022-09-07T11:31:44.800Z,9.278260
2022-09-07T11:32:44.788Z,9.278341
2022-09-07T11:34:23.727Z,9.278505
2022-09-07T11:34:46.799Z,9.278306
2022-09-07T11:35:44.751Z,9.278154
2022-09-07T11:36:44.738Z,9.278279
2022-09-07T11:37:44.705Z,9.278317
2022-09-07T11:38:44.700Z,9.278345
2022-09-07T11:39:44.789Z,9.278381
2022-09-07T11:40:44.657Z,9.278548
2022-09-07T11:41:44.656Z,9.278575
2022-09-07T11:42:44.700Z,9.278752
2022-09-07T11:43:44.616Z,9.278447
2022-09-07T11:44:44.627Z,9.278505
2022-09-07T11:45:44.640Z,9.278334
2022-09-07T11:46:44.639Z,9.278463
2022-09-07T11:47:44.558Z,9.278444
2022-09-07T11:48:44.525Z,9.278174
2022-09-07T11:49:50.789Z,9.278356
2022-09-07T11:50:46.516Z,9.278495
2022-09-07T11:51:44.476Z,9.278504
2022-09-07T11:52:44.479Z,9.278522
2022-09-07T11:53:44.457Z,9.278361
2022-09-07T11:54:44.464Z,9.278381
2022-09-07T11:55:44.416Z,9.278434
2022-09-07T11:56:45.710Z,9.278438
2022-09-07T11:57:45.382Z,9.278377
2022-09-07T11:58:44.371Z,9.278292
2022-09-07T11:59:44.382Z,9.278377
2022-09-07T12:00:44.345Z,9.278307
2022-09-07T12:01:44.336Z,9.278355
2022-09-07T12:02:58.999Z,9.278185
2022-09-07T12:03:46.433Z,9.278397
2022-09-07T12:04:44.362Z,9.278460
2022-09-07T12:05:44.269Z,9.278425
2022-09-07T12:06:44.254Z,9.278317
2022-09-07T12:07:44.239Z,9.278444
2022-09-07T12:08:44.198Z,9.278508
2022-09-07T12:09:44.215Z,9.278556